Time;durP1;ratioP1;P1;durP2;ratioP2;P2;SDS_P1;SDS_P2;PMS_P1;PMS_P2;Temp;Humidity;BMP_temperature;BMP_pressure;BME280_temperature;BME280_humidity;BME280_pressure;Samples;Min_cycle;Max_cycle;Signal;HPM_P1;HPM_P2
2024/01/15 00:01:56;;;;;;;60.55;17.92;;;;;;;;;;4991155;28;20026;-69
2024/01/15 00:04:21;;;;;;;55.88;17.85;;;;;;;;;;4989728;28;20568;-69
2024/01/15 00:06:46;;;;;;;50.15;17.42;;;;;;;;;;4989817;28;20441;-69
2024/01/15 00:09:11;;;;;;;37.97;15.70;;;;;;;;;;4987652;28;20054;-69
2024/01/15 00:11:36;;;;;;;36.33;13.50;;;;;;;;;;4990413;28;20018;-69
2024/01/15 00:14:03;;;;;;;33.92;12.65;;;;;;;;;;4984176;28;20113;-69
2024/01/15 00:16:28;;;;;;;58.80;18.20;;;;;;;;;;4987188;28;20374;-69
2024/01/15 00:18:53;;;;;;;27.83;10.05;;;;;;;;;;4989665;28;20058;-69
2024/01/15 00:21:18;;;;;;;59.83;21.20;;;;;;;;;;4987451;28;20018;-69
2024/01/15 00:23:46;;;;;;;50.85;18.65;;;;;;;;;;4987469;28;20038;-69
2024/01/15 00:26:12;;;;;;;55.70;19.08;;;;;;;;;;4985149;28;20394;-69
2024/01/15 00:28:37;;;;;;;54.42;20.05;;;;;;;;;;4981635;28;20026;-69
2024/01/15 00:31:03;;;;;;;65.55;20.33;;;;;;;;;;4986723;28;20022;-69
2024/01/15 00:33:29;;;;;;;68.40;26.67;;;;;;;;;;4982212;28;20019;-69
2024/01/15 00:35:54;;;;;;;82.65;29.30;;;;;;;;;;4982575;28;20514;-69
2024/01/15 00:38:20;;;;;;;85.40;25.90;;;;;;;;;;4987037;28;20133;-69
2024/01/15 00:40:45;;;;;;;81.85;32.22;;;;;;;;;;4984455;28;20026;-69
2024/01/15 00:43:10;;;;;;;76.00;26.77;;;;;;;;;;4987375;28;20376;-69
2024/01/15 00:45:35;;;;;;;78.47;24.43;;;;;;;;;;4983964;28;20037;-69
2024/01/15 00:48:01;;;;;;;69.40;24.05;;;;;;;;;;4989701;28;20281;-69
2024/01/15 00:50:26;;;;;;;82.38;25.15;;;;;;;;;;4988629;28;20491;-69
2024/01/15 00:52:51;;;;;;;76.60;24.30;;;;;;;;;;4987272;28;20018;-69
2024/01/15 00:55:16;;;;;;;69.50;23.45;;;;;;;;;;4980980;28;20398;-70
2024/01/15 00:57:42;;;;;;;66.25;21.23;;;;;;;;;;4983867;28;20023;-69
2024/01/15 01:00:07;;;;;;;74.93;24.00;;;;;;;;;;4976661;28;20037;-69
2024/01/15 01:02:32;;;;;;;80.70;26.42;;;;;;;;;;4989877;28;20041;-69
2024/01/15 01:04:57;;;;;;;78.47;25.92;;;;;;;;;;4990466;28;20110;-69
2024/01/15 01:07:22;;;;;;;84.32;26.27;;;;;;;;;;4990198;28;20390;-69
2024/01/15 01:09:48;;;;;;;89.20;26.17;;;;;;;;;;4987687;28;20089;-69
2024/01/15 01:12:13;;;;;;;83.20;27.13;;;;;;;;;;4987713;28;20266;-69
2024/01/15 01:14:38;;;;;;;81.55;25.85;;;;;;;;;;4980415;28;20038;-69
2024/01/15 01:17:03;;;;;;;83.20;25.63;;;;;;;;;;4982289;28;20035;-69
2024/01/15 01:19:30;;;;;;;82.05;27.30;;;;;;;;;;4988227;28;20191;-69
2024/01/15 01:21:55;;;;;;;55.67;19.50;;;;;;;;;;4990353;28;20045;-70
2024/01/15 01:24:20;;;;;;;71.38;25.45;;;;;;;;;;4989851;28;20564;-70
2024/01/15 01:26:46;;;;;;;97.68;35.45;;;;;;;;;;4989991;28;20034;-70
2024/01/15 01:29:11;;;;;;;59.25;19.42;;;;;;;;;;4986701;28;20056;-70
2024/01/15 01:31:41;;;;;;;75.07;26.42;;;;;;;;;;4979795;28;20038;-70
2024/01/15 01:34:07;;;;;;;74.68;27.25;;;;;;;;;;4988935;28;20129;-70
2024/01/15 01:36:32;;;;;;;71.35;23.98;;;;;;;;;;4988977;28;20553;-70
2024/01/15 01:38:57;;;;;;;86.65;29.40;;;;;;;;;;4987941;28;20030;-70
2024/01/15 01:41:24;;;;;;;79.45;25.15;;;;;;;;;;4986098;28;20072;-70
2024/01/15 01:43:49;;;;;;;64.30;22.38;;;;;;;;;;4988049;28;20042;-70
2024/01/15 01:46:14;;;;;;;54.95;20.02;;;;;;;;;;4981017;28;20023;-70
2024/01/15 01:48:40;;;;;;;76.43;24.77;;;;;;;;;;4981873;28;20102;-70
2024/01/15 01:51:05;;;;;;;81.43;26.05;;;;;;;;;;4983517;28;20018;-70
2024/01/15 01:53:32;;;;;;;77.90;28.77;;;;;;;;;;4989742;28;20494;-70
2024/01/15 01:55:57;;;;;;;74.88;26.60;;;;;;;;;;4985633;28;20038;-70
2024/01/15 01:58:22;;;;;;;60.35;21.00;;;;;;;;;;4981413;28;20026;-70
2024/01/15 02:00:49;;;;;;;91.18;29.40;;;;;;;;;;4984115;28;20057;-70
2024/01/15 02:03:14;;;;;;;69.05;25.25;;;;;;;;;;4987588;28;20026;-70
2024/01/15 02:05:40;;;;;;;74.93;27.50;;;;;;;;;;4979345;28;20022;-70
2024/01/15 02:08:05;;;;;;;83.32;28.75;;;;;;;;;;4982846;28;20021;-70
2024/01/15 02:10:30;;;;;;;81.82;27.92;;;;;;;;;;4982405;28;20053;-70
2024/01/15 02:12:56;;;;;;;69.93;23.55;;;;;;;;;;4981314;28;20031;-70
2024/01/15 02:15:21;;;;;;;85.97;31.27;;;;;;;;;;4982216;28;20105;-70
2024/01/15 02:17:59;;;;;;;74.40;25.85;;;;;;;;;;4982451;28;20506;-69
2024/01/15 02:20:25;;;;;;;81.03;25.75;;;;;;;;;;4979712;28;20030;-69
2024/01/15 02:22:50;;;;;;;80.85;26.83;;;;;;;;;;4979226;28;20026;-70
2024/01/15 02:25:15;;;;;;;76.95;25.30;;;;;;;;;;4987771;28;20306;-70
2024/01/15 02:27:41;;;;;;;71.53;25.45;;;;;;;;;;4980750;28;20033;-69
2024/01/15 02:30:07;;;;;;;51.30;16.38;;;;;;;;;;4983359;28;20019;-69
2024/01/15 02:32:32;;;;;;;72.80;23.15;;;;;;;;;;4975026;28;20038;-69
2024/01/15 02:34:58;;;;;;;74.47;28.50;;;;;;;;;;4982539;28;20030;-69
2024/01/15 02:37:23;;;;;;;66.97;21.85;;;;;;;;;;4983111;28;20272;-70
2024/01/15 02:39:48;;;;;;;76.67;24.97;;;;;;;;;;4984390;28;20041;-69
2024/01/15 02:42:13;;;;;;;69.38;22.38;;;;;;;;;;4982765;28;20735;-69
2024/01/15 02:44:38;;;;;;;67.57;25.03;;;;;;;;;;4984079;28;20034;-69
2024/01/15 02:47:04;;;;;;;80.53;24.73;;;;;;;;;;4981255;28;20265;-69
2024/01/15 02:49:31;;;;;;;72.47;21.17;;;;;;;;;;4985969;28;20270;-69
2024/01/15 02:51:56;;;;;;;57.45;21.33;;;;;;;;;;4982619;28;20053;-69
2024/01/15 02:54:21;;;;;;;49.05;15.63;;;;;;;;;;4982820;28;20109;-69
2024/01/15 02:56:46;;;;;;;55.88;23.25;;;;;;;;;;4980875;28;20399;-69
2024/01/15 02:59:11;;;;;;;80.03;25.65;;;;;;;;;;4984024;28;20030;-69
2024/01/15 03:01:36;;;;;;;72.28;24.40;;;;;;;;;;4983669;28;20105;-69
2024/01/15 03:04:02;;;;;;;78.63;26.98;;;;;;;;;;4985348;28;20078;-69
2024/01/15 03:06:27;;;;;;;72.78;23.05;;;;;;;;;;4984723;28;20091;-69
2024/01/15 03:08:52;;;;;;;70.65;22.92;;;;;;;;;;4983854;28;20516;-69
2024/01/15 03:11:17;;;;;;;75.70;25.88;;;;;;;;;;4985148;28;20022;-69
2024/01/15 03:13:43;;;;;;;73.10;24.73;;;;;;;;;;4985678;28;20022;-69
2024/01/15 03:16:08;;;;;;;71.65;24.40;;;;;;;;;;4978582;28;20026;-69
2024/01/15 03:18:33;;;;;;;67.25;21.88;;;;;;;;;;4987301;28;20378;-69
2024/01/15 03:21:01;;;;;;;56.40;20.50;;;;;;;;;;4984001;28;20481;-69
2024/01/15 03:23:26;;;;;;;65.35;26.27;;;;;;;;;;4980865;28;20026;-69
2024/01/15 03:25:51;;;;;;;56.40;18.90;;;;;;;;;;4979816;28;20031;-69
2024/01/15 03:28:16;;;;;;;66.53;26.30;;;;;;;;;;4982490;28;20653;-69
2024/01/15 03:30:41;;;;;;;59.88;19.52;;;;;;;;;;4981367;28;20101;-69
2024/01/15 03:33:06;;;;;;;60.38;22.80;;;;;;;;;;4987764;28;20066;-69
2024/01/15 03:35:32;;;;;;;58.10;18.83;;;;;;;;;;4983234;28;20095;-69
2024/01/15 03:37:57;;;;;;;55.50;20.60;;;;;;;;;;4983893;28;20500;-69
2024/01/15 03:40:22;;;;;;;54.78;16.98;;;;;;;;;;4985588;28;20045;-69
2024/01/15 03:42:47;;;;;;;64.23;19.30;;;;;;;;;;4982073;28;20045;-69
2024/01/15 03:45:12;;;;;;;56.17;21.23;;;;;;;;;;4975215;28;20316;-69
2024/01/15 03:47:38;;;;;;;58.00;19.58;;;;;;;;;;4984167;28;20101;-69
2024/01/15 03:50:03;;;;;;;57.63;21.85;;;;;;;;;;4986020;28;20056;-69
2024/01/15 03:52:28;;;;;;;55.38;19.70;;;;;;;;;;4979811;28;20627;-69
2024/01/15 03:54:53;;;;;;;66.57;21.08;;;;;;;;;;4989719;28;20026;-69
2024/01/15 03:57:19;;;;;;;68.53;28.20;;;;;;;;;;4982515;28;20026;-69
2024/01/15 03:59:47;;;;;;;63.73;25.10;;;;;;;;;;4979786;28;20490;-69
2024/01/15 04:02:12;;;;;;;50.60;19.15;;;;;;;;;;4981310;28;20274;-69
2024/01/15 04:04:40;;;;;;;64.30;33.13;;;;;;;;;;4985114;28;20026;-69
2024/01/15 04:07:05;;;;;;;65.07;20.17;;;;;;;;;;4981936;28;20034;-69
2024/01/15 04:09:30;;;;;;;58.45;21.40;;;;;;;;;;4990550;28;20031;-70
2024/01/15 04:11:55;;;;;;;55.03;20.33;;;;;;;;;;4981304;28;20312;-68
2024/01/15 04:14:20;;;;;;;52.15;17.58;;;;;;;;;;4981608;28;20262;-68
2024/01/15 04:16:46;;;;;;;64.03;20.13;;;;;;;;;;4983537;28;20034;-68
2024/01/15 04:19:11;;;;;;;58.30;20.48;;;;;;;;;;4986703;28;20752;-68
2024/01/15 04:21:36;;;;;;;51.15;18.33;;;;;;;;;;4984380;28;20092;-68
2024/01/15 04:24:01;;;;;;;65.45;28.48;;;;;;;;;;4988127;28;20031;-68
2024/01/15 04:26:26;;;;;;;56.55;18.60;;;;;;;;;;4986529;28;20045;-68
2024/01/15 04:28:52;;;;;;;48.88;19.27;;;;;;;;;;4980658;28;20033;-68
2024/01/15 04:31:21;;;;;;;54.28;21.63;;;;;;;;;;4983475;28;20117;-69
2024/01/15 04:33:46;;;;;;;45.88;16.55;;;;;;;;;;4983542;28;20081;-69
2024/01/15 04:36:11;;;;;;;45.88;16.73;;;;;;;;;;4982245;28;20022;-69
2024/01/15 04:38:36;;;;;;;56.20;19.17;;;;;;;;;;4983371;28;20053;-69
2024/01/15 04:41:02;;;;;;;50.03;18.37;;;;;;;;;;4981405;28;20266;-69
2024/01/15 04:43:27;;;;;;;54.40;20.05;;;;;;;;;;4982349;28;20696;-68
2024/01/15 04:45:52;;;;;;;54.00;21.00;;;;;;;;;;4981967;28;20469;-69
2024/01/15 04:48:17;;;;;;;46.25;15.25;;;;;;;;;;4979385;28;20055;-68
2024/01/15 04:50:42;;;;;;;45.03;16.85;;;;;;;;;;4982300;28;20018;-68
2024/01/15 04:53:07;;;;;;;43.63;15.90;;;;;;;;;;4987054;28;20113;-68
2024/01/15 04:55:33;;;;;;;44.50;18.70;;;;;;;;;;4983820;28;20031;-68
2024/01/15 04:57:58;;;;;;;46.37;17.87;;;;;;;;;;4987951;28;20261;-67
2024/01/15 05:00:23;;;;;;;51.33;16.95;;;;;;;;;;4982784;28;20273;-68
2024/01/15 05:02:48;;;;;;;44.80;15.57;;;;;;;;;;4983075;28;20027;-68
2024/01/15 05:05:13;;;;;;;53.03;15.00;;;;;;;;;;4979712;28;20034;-68
2024/01/15 05:07:39;;;;;;;45.97;16.00;;;;;;;;;;4985992;28;20340;-68
2024/01/15 05:10:04;;;;;;;42.60;15.00;;;;;;;;;;4988544;28;20501;-68
2024/01/15 05:12:29;;;;;;;47.35;17.80;;;;;;;;;;4987561;28;20076;-68
2024/01/15 05:14:54;;;;;;;52.93;16.33;;;;;;;;;;4984766;28;20030;-68
2024/01/15 05:17:19;;;;;;;48.58;17.10;;;;;;;;;;4982586;28;20273;-68
2024/01/15 05:19:45;;;;;;;48.63;17.33;;;;;;;;;;4980550;28;20106;-68
2024/01/15 05:22:10;;;;;;;49.97;18.58;;;;;;;;;;4979445;28;20026;-68
2024/01/15 05:24:35;;;;;;;51.72;18.17;;;;;;;;;;4979949;28;20054;-68
2024/01/15 05:27:00;;;;;;;43.15;15.15;;;;;;;;;;4982980;28;20019;-68
2024/01/15 05:29:26;;;;;;;43.97;14.40;;;;;;;;;;4983186;28;20524;-68
2024/01/15 05:31:51;;;;;;;39.63;20.33;;;;;;;;;;4981915;28;20257;-68
2024/01/15 05:34:17;;;;;;;38.58;13.13;;;;;;;;;;4988812;28;20540;-68
2024/01/15 05:36:42;;;;;;;40.42;13.52;;;;;;;;;;4983551;28;20038;-68
2024/01/15 05:39:07;;;;;;;39.00;14.73;;;;;;;;;;4987778;28;20030;-68
2024/01/15 05:41:32;;;;;;;42.65;14.07;;;;;;;;;;4984438;28;20065;-68
2024/01/15 05:43:58;;;;;;;41.55;13.40;;;;;;;;;;4976408;28;20537;-68
2024/01/15 05:46:23;;;;;;;41.70;15.05;;;;;;;;;;4980025;28;20042;-68
2024/01/15 05:48:48;;;;;;;39.97;13.97;;;;;;;;;;4983319;28;20029;-68
2024/01/15 05:51:13;;;;;;;34.63;12.68;;;;;;;;;;4978876;28;20270;-68
2024/01/15 05:53:40;;;;;;;41.60;16.35;;;;;;;;;;4985572;28;20022;-68
2024/01/15 05:56:05;;;;;;;31.45;11.27;;;;;;;;;;4983230;28;20025;-68
2024/01/15 05:58:30;;;;;;;41.42;14.65;;;;;;;;;;4981242;28;20026;-68
2024/01/15 06:00:56;;;;;;;42.33;14.77;;;;;;;;;;4983760;28;20026;-68
2024/01/15 06:03:21;;;;;;;42.35;13.80;;;;;;;;;;4983080;28;20080;-68
2024/01/15 06:05:46;;;;;;;34.30;13.67;;;;;;;;;;4979941;28;20493;-68
2024/01/15 06:08:11;;;;;;;38.30;12.80;;;;;;;;;;4982656;28;20290;-68
2024/01/15 06:10:36;;;;;;;34.85;13.00;;;;;;;;;;4979001;28;20018;-68
2024/01/15 06:13:01;;;;;;;33.00;11.67;;;;;;;;;;4989376;28;21265;-68
2024/01/15 06:15:27;;;;;;;46.88;13.52;;;;;;;;;;4982473;28;20254;-68
2024/01/15 06:17:52;;;;;;;38.55;15.43;;;;;;;;;;4981022;28;20026;-68
2024/01/15 06:20:17;;;;;;;25.03;9.57;;;;;;;;;;4982499;28;20023;-68
2024/01/15 06:22:42;;;;;;;47.05;16.88;;;;;;;;;;4980387;28;20585;-68
2024/01/15 06:25:08;;;;;;;38.10;15.65;;;;;;;;;;4985166;28;20034;-68
2024/01/15 06:27:33;;;;;;;34.75;13.75;;;;;;;;;;4987612;28;20039;-68
2024/01/15 06:29:58;;;;;;;37.92;14.70;;;;;;;;;;4985101;28;20170;-68
2024/01/15 06:32:24;;;;;;;45.58;18.13;;;;;;;;;;4983397;28;20026;-68
2024/01/15 06:34:49;;;;;;;39.55;14.68;;;;;;;;;;4983211;28;20511;-68
2024/01/15 06:37:14;;;;;;;48.97;15.32;;;;;;;;;;4988884;28;20108;-68
2024/01/15 06:39:39;;;;;;;42.42;14.85;;;;;;;;;;4988177;28;20063;-68
2024/01/15 06:42:05;;;;;;;41.05;16.20;;;;;;;;;;4989521;28;20026;-68
2024/01/15 06:44:30;;;;;;;37.53;13.90;;;;;;;;;;4992065;28;20625;-68
2024/01/15 06:46:57;;;;;;;31.65;12.50;;;;;;;;;;4986415;28;20366;-68
2024/01/15 06:49:22;;;;;;;36.45;15.32;;;;;;;;;;4987680;28;20659;-68
2024/01/15 06:51:47;;;;;;;38.22;14.85;;;;;;;;;;4989091;28;20035;-68
2024/01/15 06:54:13;;;;;;;39.17;15.77;;;;;;;;;;4985823;28;20484;-68
2024/01/15 06:56:38;;;;;;;40.50;15.90;;;;;;;;;;4983108;28;20264;-68
2024/01/15 06:59:03;;;;;;;39.80;14.50;;;;;;;;;;4987833;28;20745;-68
2024/01/15 07:01:28;;;;;;;37.47;14.93;;;;;;;;;;4986162;28;20275;-68
2024/01/15 07:03:54;;;;;;;36.42;13.13;;;;;;;;;;4986375;28;20070;-68
2024/01/15 07:06:19;;;;;;;29.60;13.48;;;;;;;;;;4990921;28;20101;-68
2024/01/15 07:08:44;;;;;;;35.40;14.82;;;;;;;;;;4990469;28;20022;-68
2024/01/15 07:11:12;;;;;;;39.45;15.27;;;;;;;;;;4987936;28;20474;-68
2024/01/15 07:13:37;;;;;;;40.28;20.23;;;;;;;;;;4990266;28;20034;-69
2024/01/15 07:16:03;;;;;;;38.17;14.27;;;;;;;;;;4987191;28;20030;-69
2024/01/15 07:18:28;;;;;;;49.17;21.90;;;;;;;;;;4985602;28;20019;-69
2024/01/15 07:20:53;;;;;;;42.67;18.98;;;;;;;;;;4980832;28;20018;-68
2024/01/15 07:23:18;;;;;;;47.50;19.88;;;;;;;;;;4984534;28;20054;-69
2024/01/15 07:25:43;;;;;;;37.90;16.87;;;;;;;;;;4986303;28;20235;-69
2024/01/15 07:28:09;;;;;;;47.35;18.92;;;;;;;;;;4983306;28;20257;-69
2024/01/15 07:30:34;;;;;;;33.45;13.35;;;;;;;;;;4982977;28;20415;-69
2024/01/15 07:33:00;;;;;;;52.60;18.73;;;;;;;;;;4990321;28;20030;-69
2024/01/15 07:35:25;;;;;;;47.15;17.40;;;;;;;;;;4985057;28;20046;-69
2024/01/15 07:37:50;;;;;;;46.83;19.13;;;;;;;;;;4985969;28;20049;-69
2024/01/15 07:40:16;;;;;;;13.68;3.05;;;;;;;;;;4991449;28;20880;-68
2024/01/15 07:42:42;;;;;;;24.75;11.15;;;;;;;;;;4986111;28;20018;-68
2024/01/15 07:45:07;;;;;;;46.80;19.70;;;;;;;;;;4988934;28;20262;-68
2024/01/15 07:47:33;;;;;;;42.58;16.70;;;;;;;;;;4990008;28;20060;-68
2024/01/15 07:49:58;;;;;;;47.35;19.38;;;;;;;;;;4980352;28;20031;-69
2024/01/15 07:52:23;;;;;;;50.92;18.85;;;;;;;;;;4989366;28;20023;-69
2024/01/15 07:54:48;;;;;;;48.33;19.02;;;;;;;;;;4983507;28;20402;-68
2024/01/15 07:57:14;;;;;;;46.03;19.87;;;;;;;;;;4989142;28;20030;-69
2024/01/15 07:59:40;;;;;;;42.28;18.08;;;;;;;;;;4992477;28;20286;-69
2024/01/15 08:02:05;;;;;;;38.58;16.92;;;;;;;;;;4985338;28;20068;-69
2024/01/15 08:04:30;;;;;;;36.42;15.15;;;;;;;;;;4986282;28;20384;-69
2024/01/15 08:06:56;;;;;;;42.53;17.13;;;;;;;;;;4985393;28;20026;-70
2024/01/15 08:09:22;;;;;;;50.65;18.13;;;;;;;;;;4985373;28;20018;-71
2024/01/15 08:11:47;;;;;;;51.33;19.13;;;;;;;;;;4980702;28;20031;-69
2024/01/15 08:14:13;;;;;;;35.38;15.35;;;;;;;;;;4983835;28;20026;-69
2024/01/15 08:16:38;;;;;;;45.10;17.40;;;;;;;;;;4990440;28;20482;-69
2024/01/15 08:19:04;;;;;;;34.00;14.90;;;;;;;;;;4985092;28;20076;-68
2024/01/15 08:21:32;;;;;;;48.10;19.60;;;;;;;;;;4984925;28;20109;-68
2024/01/15 08:23:58;;;;;;;40.50;18.23;;;;;;;;;;4987472;28;20485;-69
2024/01/15 08:26:23;;;;;;;25.08;11.02;;;;;;;;;;4985613;28;20093;-69
2024/01/15 08:28:48;;;;;;;45.20;19.40;;;;;;;;;;4988453;28;20014;-69
2024/01/15 08:31:14;;;;;;;46.53;18.95;;;;;;;;;;4988721;28;20058;-68
2024/01/15 08:33:39;;;;;;;58.88;20.60;;;;;;;;;;4987544;28;20035;-68
2024/01/15 08:36:04;;;;;;;42.67;15.82;;;;;;;;;;4980523;28;20073;-69
2024/01/15 08:38:29;;;;;;;43.50;18.45;;;;;;;;;;4989653;28;20221;-66
2024/01/15 08:40:56;;;;;;;51.00;20.80;;;;;;;;;;4980164;28;20033;-69
2024/01/15 08:43:21;;;;;;;32.65;14.00;;;;;;;;;;4988580;28;20070;-68
2024/01/15 08:45:48;;;;;;;50.75;18.98;;;;;;;;;;4989866;28;20050;-66
2024/01/15 08:48:13;;;;;;;36.05;13.38;;;;;;;;;;4977602;28;20034;-67
2024/01/15 08:50:38;;;;;;;44.22;18.45;;;;;;;;;;4991470;28;20018;-67
2024/01/15 08:53:04;;;;;;;41.20;21.05;;;;;;;;;;4991346;28;20493;-67
2024/01/15 08:55:29;;;;;;;39.05;15.50;;;;;;;;;;4977014;28;20045;-66
2024/01/15 08:57:54;;;;;;;37.92;14.60;;;;;;;;;;4986442;28;20019;-66
2024/01/15 09:00:19;;;;;;;44.17;16.08;;;;;;;;;;4985663;28;20081;-69
2024/01/15 09:02:45;;;;;;;52.15;22.25;;;;;;;;;;4990337;28;20383;-69
2024/01/15 09:05:10;;;;;;;50.67;19.38;;;;;;;;;;4987948;28;20026;-69
2024/01/15 09:07:35;;;;;;;45.15;20.17;;;;;;;;;;4984295;28;20026;-70
2024/01/15 09:10:01;;;;;;;49.00;18.27;;;;;;;;;;4991063;28;20021;-69
2024/01/15 09:12:26;;;;;;;24.88;10.27;;;;;;;;;;4990617;28;20057;-69
2024/01/15 09:14:51;;;;;;;43.83;14.60;;;;;;;;;;4990661;28;20038;-70
2024/01/15 09:17:17;;;;;;;50.75;23.23;;;;;;;;;;4983769;28;20023;-69
2024/01/15 09:19:42;;;;;;;53.35;19.60;;;;;;;;;;4983602;28;20045;-69
2024/01/15 09:22:08;;;;;;;41.38;16.73;;;;;;;;;;4990012;28;20049;-69
2024/01/15 09:24:33;;;;;;;52.80;19.45;;;;;;;;;;4989995;28;20022;-67
2024/01/15 09:26:58;;;;;;;51.50;20.05;;;;;;;;;;4989869;28;20101;-66
2024/01/15 09:29:23;;;;;;;51.05;20.63;;;;;;;;;;4989950;28;20401;-67
2024/01/15 09:31:50;;;;;;;50.42;20.08;;;;;;;;;;4989169;28;20096;-67
2024/01/15 09:34:15;;;;;;;33.75;15.20;;;;;;;;;;4986553;28;20026;-69
2024/01/15 09:36:42;;;;;;;37.22;16.13;;;;;;;;;;4977183;28;20077;-67
2024/01/15 09:39:08;;;;;;;38.17;15.55;;;;;;;;;;4985729;28;20026;-68
2024/01/15 09:41:35;;;;;;;39.30;17.48;;;;;;;;;;4986551;28;20505;-69
2024/01/15 09:44:00;;;;;;;40.30;16.88;;;;;;;;;;4990803;28;20064;-67
2024/01/15 09:46:25;;;;;;;31.77;18.02;;;;;;;;;;4988218;28;20058;-69
2024/01/15 09:48:50;;;;;;;40.03;17.00;;;;;;;;;;4990311;28;20026;-69
2024/01/15 09:51:16;;;;;;;28.65;13.55;;;;;;;;;;4989582;28;20097;-68
2024/01/15 09:53:41;;;;;;;29.60;14.30;;;;;;;;;;4989101;28;20018;-69
2024/01/15 09:56:08;;;;;;;30.90;13.65;;;;;;;;;;4990334;28;20030;-67
2024/01/15 09:58:33;;;;;;;30.60;10.70;;;;;;;;;;4988850;28;20030;-67
2024/01/15 10:00:58;;;;;;;30.52;11.90;;;;;;;;;;4989011;28;20077;-67
2024/01/15 10:03:24;;;;;;;28.38;13.50;;;;;;;;;;4983258;28;20418;-67
2024/01/15 10:05:49;;;;;;;35.20;11.98;;;;;;;;;;4983951;28;20029;-69
2024/01/15 10:08:14;;;;;;;22.63;10.43;;;;;;;;;;4988872;28;20041;-67
2024/01/15 10:10:40;;;;;;;29.88;11.65;;;;;;;;;;4989662;28;20034;-69
2024/01/15 10:13:06;;;;;;;27.23;11.18;;;;;;;;;;4989086;28;20017;-69
2024/01/15 10:15:34;;;;;;;28.98;11.70;;;;;;;;;;4987283;28;20018;-67
2024/01/15 10:17:59;;;;;;;19.85;8.98;;;;;;;;;;4989906;28;20033;-67
2024/01/15 10:20:24;;;;;;;19.50;9.52;;;;;;;;;;4976936;28;20019;-67
2024/01/15 10:22:50;;;;;;;18.83;11.73;;;;;;;;;;4989933;28;20053;-68
2024/01/15 10:25:15;;;;;;;21.92;11.85;;;;;;;;;;4986610;28;20053;-68
2024/01/15 10:27:43;;;;;;;24.98;7.85;;;;;;;;;;4985516;28;20489;-68
2024/01/15 10:30:13;;;;;;;18.55;8.35;;;;;;;;;;4983516;28;20546;-68
2024/01/15 10:32:39;;;;;;;22.13;7.88;;;;;;;;;;4987205;28;20026;-68
2024/01/15 10:35:04;;;;;;;19.75;12.05;;;;;;;;;;4974399;28;20037;-68
2024/01/15 10:37:32;;;;;;;23.52;10.65;;;;;;;;;;4988585;28;20454;-68
2024/01/15 10:39:57;;;;;;;20.85;7.53;;;;;;;;;;4984194;28;20019;-68
2024/01/15 10:42:23;;;;;;;18.63;8.07;;;;;;;;;;4985018;28;20105;-68
2024/01/15 10:44:48;;;;;;;21.23;10.25;;;;;;;;;;4984447;28;20066;-68
2024/01/15 10:47:14;;;;;;;14.63;7.55;;;;;;;;;;4977374;28;20097;-69
2024/01/15 10:49:39;;;;;;;13.38;6.47;;;;;;;;;;4986373;28;20058;-68
2024/01/15 10:52:05;;;;;;;20.98;10.38;;;;;;;;;;4982787;28;20034;-68
2024/01/15 10:54:31;;;;;;;16.30;7.50;;;;;;;;;;4984536;28;20101;-68
2024/01/15 10:56:56;;;;;;;16.35;6.28;;;;;;;;;;4982433;28;20026;-68
2024/01/15 10:59:22;;;;;;;15.75;7.47;;;;;;;;;;4987973;28;20025;-68
2024/01/15 11:01:48;;;;;;;19.80;7.57;;;;;;;;;;4976910;28;20026;-69
2024/01/15 11:04:13;;;;;;;12.25;6.43;;;;;;;;;;4983367;28;20097;-68
2024/01/15 11:06:45;;;;;;;13.05;5.30;;;;;;;;;;4989387;28;20014;-68
2024/01/15 11:09:11;;;;;;;15.93;5.55;;;;;;;;;;4987883;28;20094;-68
2024/01/15 11:11:40;;;;;;;9.63;4.38;;;;;;;;;;4992742;28;20018;-68
2024/01/15 11:14:06;;;;;;;9.48;5.15;;;;;;;;;;4992263;28;20027;-68
2024/01/15 11:16:50;;;;;;;8.18;4.10;;;;;;;;;;4991251;28;20586;-69
2024/01/15 11:19:18;;;;;;;14.60;4.97;;;;;;;;;;4978956;28;20027;-69
2024/01/15 11:21:44;;;;;;;7.82;3.92;;;;;;;;;;4988753;28;20019;-69
2024/01/15 11:24:11;;;;;;;9.85;5.68;;;;;;;;;;4983062;28;20096;-69
2024/01/15 11:26:36;;;;;;;10.73;5.38;;;;;;;;;;4978844;28;20101;-69
2024/01/15 11:29:05;;;;;;;13.55;5.47;;;;;;;;;;4989548;28;20474;-69
2024/01/15 11:31:36;;;;;;;10.27;4.17;;;;;;;;;;4992219;28;20101;-69
2024/01/15 11:34:02;;;;;;;7.68;3.60;;;;;;;;;;4992870;28;20811;-69
2024/01/15 11:36:43;;;;;;;7.00;3.58;;;;;;;;;;4986554;28;20022;-69
2024/01/15 11:39:08;;;;;;;;;;;;;;;;;;4986649;28;20101;-70
2024/01/15 11:41:33;;;;;;;6.93;2.40;;;;;;;;;;4986358;28;20004;-69
2024/01/15 11:43:58;;;;;;;11.32;3.25;;;;;;;;;;4989745;28;20061;-69
2024/01/15 11:46:26;;;;;;;7.18;3.25;;;;;;;;;;4992245;28;20096;-69
2024/01/15 11:48:57;;;;;;;7.75;2.80;;;;;;;;;;4982912;28;20482;-69
2024/01/15 11:51:22;;;;;;;7.97;2.97;;;;;;;;;;4984904;28;20056;-69
2024/01/15 11:53:48;;;;;;;6.93;3.00;;;;;;;;;;4992137;28;20426;-69
2024/01/15 11:56:17;;;;;;;5.40;3.20;;;;;;;;;;4989257;28;20014;-69
2024/01/15 11:58:43;;;;;;;10.02;3.88;;;;;;;;;;4989261;28;20034;-68
2024/01/15 12:01:08;;;;;;;7.03;3.63;;;;;;;;;;4989976;28;20026;-69
2024/01/15 12:03:34;;;;;;;7.40;3.10;;;;;;;;;;4990130;28;20034;-69
2024/01/15 12:05:59;;;;;;;6.97;3.55;;;;;;;;;;4986984;28;20021;-68
2024/01/15 12:08:26;;;;;;;5.15;3.08;;;;;;;;;;4988713;28;20097;-69
2024/01/15 12:10:54;;;;;;;9.00;4.00;;;;;;;;;;4981014;28;20052;-68
2024/01/15 12:13:20;;;;;;;7.30;4.35;;;;;;;;;;4986356;28;20023;-69
2024/01/15 12:15:46;;;;;;;13.63;4.35;;;;;;;;;;4991224;28;20036;-69
2024/01/15 12:18:15;;;;;;;9.20;4.97;;;;;;;;;;4980918;28;20094;-68
2024/01/15 12:20:40;;;;;;;13.65;4.10;;;;;;;;;;4985360;28;20019;-68
2024/01/15 12:23:06;;;;;;;14.25;5.65;;;;;;;;;;4986402;28;20018;-69
2024/01/15 12:25:32;;;;;;;23.08;6.60;;;;;;;;;;4992385;28;20152;-68
2024/01/15 12:27:58;;;;;;;13.80;6.63;;;;;;;;;;4983885;28;20061;-69
2024/01/15 12:30:23;;;;;;;15.82;7.38;;;;;;;;;;4980897;28;20446;-68
2024/01/15 12:32:48;;;;;;;13.65;7.63;;;;;;;;;;4982801;28;20019;-69
2024/01/15 12:35:14;;;;;;;18.00;7.17;;;;;;;;;;4978050;28;20019;-69
2024/01/15 12:37:39;;;;;;;13.73;7.95;;;;;;;;;;4978138;28;20254;-68
2024/01/15 12:40:06;;;;;;;21.85;7.97;;;;;;;;;;4979617;28;20398;-68
2024/01/15 12:42:32;;;;;;;13.70;8.65;;;;;;;;;;4977117;28;20053;-69
2024/01/15 12:44:57;;;;;;;20.02;7.30;;;;;;;;;;4990885;28;20725;-69
2024/01/15 12:47:22;;;;;;;15.82;7.20;;;;;;;;;;4978694;28;20026;-69
2024/01/15 12:49:53;;;;;;;20.75;6.38;;;;;;;;;;4985751;28;20035;-68
2024/01/15 12:52:19;;;;;;;23.80;11.15;;;;;;;;;;4987350;28;20121;-69
2024/01/15 12:54:44;;;;;;;15.13;6.78;;;;;;;;;;4989939;28;20433;-69
2024/01/15 12:57:09;;;;;;;11.82;4.60;;;;;;;;;;4989167;28;20049;-70
2024/01/15 12:59:34;;;;;;;19.83;7.82;;;;;;;;;;4990612;28;20088;-69
2024/01/15 13:01:59;;;;;;;41.05;6.47;;;;;;;;;;4988064;28;20101;-69
2024/01/15 13:04:25;;;;;;;17.00;6.57;;;;;;;;;;4985040;28;20494;-68
2024/01/15 13:06:50;;;;;;;26.58;5.63;;;;;;;;;;4983367;28;20410;-68
2024/01/15 13:09:16;;;;;;;23.33;5.78;;;;;;;;;;4978076;28;20561;-69
2024/01/15 13:11:42;;;;;;;18.60;6.13;;;;;;;;;;4980013;28;20470;-69
2024/01/15 13:14:07;;;;;;;11.30;5.35;;;;;;;;;;4976576;28;20037;-68
2024/01/15 13:16:32;;;;;;;12.75;5.05;;;;;;;;;;4985536;28;20029;-68
2024/01/15 13:18:58;;;;;;;11.50;4.35;;;;;;;;;;4990342;28;20084;-69
2024/01/15 13:21:23;;;;;;;15.88;4.95;;;;;;;;;;4980056;28;20019;-68
2024/01/15 13:23:49;;;;;;;9.70;5.10;;;;;;;;;;4976494;28;20077;-68
2024/01/15 13:26:14;;;;;;;8.55;3.45;;;;;;;;;;4980051;28;20014;-69
2024/01/15 13:28:39;;;;;;;17.70;4.57;;;;;;;;;;4979468;28;20010;-68
2024/01/15 13:31:04;;;;;;;11.93;4.18;;;;;;;;;;4984472;28;20030;-68
2024/01/15 13:33:30;;;;;;;14.77;4.05;;;;;;;;;;4983184;28;20026;-69
2024/01/15 13:35:55;;;;;;;16.25;4.88;;;;;;;;;;4984094;28;20478;-69
2024/01/15 13:38:20;;;;;;;14.68;3.40;;;;;;;;;;4988699;28;20560;-68
2024/01/15 13:40:45;;;;;;;18.10;3.88;;;;;;;;;;4977569;28;20037;-69
2024/01/15 13:43:11;;;;;;;7.18;3.42;;;;;;;;;;4979586;28;20037;-70
2024/01/15 13:45:37;;;;;;;16.85;4.40;;;;;;;;;;4987712;28;20045;-69
2024/01/15 13:48:05;;;;;;;7.25;2.90;;;;;;;;;;4989452;28;20095;-69
2024/01/15 13:50:30;;;;;;;9.43;3.63;;;;;;;;;;4983833;28;20010;-69
2024/01/15 13:52:55;;;;;;;7.97;2.70;;;;;;;;;;4976026;28;20612;-69
2024/01/15 13:55:21;;;;;;;7.57;3.28;;;;;;;;;;4978164;28;20102;-70
2024/01/15 13:57:46;;;;;;;11.20;3.92;;;;;;;;;;4982139;28;20084;-70
2024/01/15 14:00:11;;;;;;;4.53;2.40;;;;;;;;;;4977342;28;20030;-70
2024/01/15 14:02:37;;;;;;;9.05;3.85;;;;;;;;;;5004247;28;20288;-69
2024/01/15 14:05:02;;;;;;;7.97;3.03;;;;;;;;;;4985647;28;20022;-69
2024/01/15 14:07:27;;;;;;;9.65;3.53;;;;;;;;;;4982682;28;20029;-70
2024/01/15 14:09:52;;;;;;;7.33;2.67;;;;;;;;;;4981675;28;20549;-70
2024/01/15 14:12:18;;;;;;;12.33;3.70;;;;;;;;;;4977592;28;20250;-69